Welaka, Florida
Current Conditions -  °F | °C
As of 7:15 AM on Monday 24 Nov 2014 (Local Time) from K28J Reporting Station
Haze Haze  
Wind Chill: 22°   Ceiling: Unl
Heat Index: 22°   Visibility: 5mi
Dew Point: 22°   Wind: 6mph
Humidity: 100%   Direction: 190°S
Pressure: 29.94"   Gusts: NA
Location:  29.48°N, 81.67°W
Report Text: K28J 241215Z AUTO 19005KT 5SM BR SCT007 SCT022 22/22 A2994 RMK AO2
Loading
Personal Weather Stations






























Interactive Weather Map New forecast layout! Learn more

10-Day Weather Forecast

Advertisements
Track Severe Weather on mobile